Eastwood, Ohio
Current Conditions -  °F | °C
As of 4:53 AM on Sunday 25 Jan 2015 (Local Time) from KLUK Reporting Station
Haze Haze  
Wind Chill: 25°   Ceiling: Unl
Heat Index: 30°   Visibility: 5mi
Dew Point: 28°   Wind: 5mph
Humidity: 92%   Direction: 240°WSW
Pressure: 29.77"   Gusts: NA
Location:  39.088°N, 84.0217°W
Report Text: KLUK 250953Z AUTO 24004KT 5SM BR CLR M01/M02 A2977 RMK AO2 SLP085 T10111022
Loading
Personal Weather Stations






























Interactive Weather Map New forecast layout! Learn more

10-Day Weather Forecast

Advertisements
Track Severe Weather on mobile